sensor_id;sensor_type;location;lat;lon;timestamp;pressure;altitude;pressure_sealevel;temperature
20103;BMP180;10210;52.284;9.892;2024-01-30T00:01:52;101751.00;;;10.60
20103;BMP180;10210;52.284;9.892;2024-01-30T00:04:17;101745.00;;;10.60
20103;BMP180;10210;52.284;9.892;2024-01-30T00:06:46;101745.00;;;10.60
20103;BMP180;10210;52.284;9.892;2024-01-30T00:09:12;101742.00;;;10.50
20103;BMP180;10210;52.284;9.892;2024-01-30T00:11:38;101747.00;;;10.40
20103;BMP180;10210;52.284;9.892;2024-01-30T00:14:04;101748.00;;;10.40
20103;BMP180;10210;52.284;9.892;2024-01-30T00:16:30;101744.00;;;10.30
20103;BMP180;10210;52.284;9.892;2024-01-30T00:18:56;101737.00;;;10.20
20103;BMP180;10210;52.284;9.892;2024-01-30T00:21:22;101744.00;;;10.20
20103;BMP180;10210;52.284;9.892;2024-01-30T00:23:47;101738.00;;;10.20
20103;BMP180;10210;52.284;9.892;2024-01-30T00:26:14;101737.00;;;10.20
20103;BMP180;10210;52.284;9.892;2024-01-30T00:28:41;101739.00;;;10.10
20103;BMP180;10210;52.284;9.892;2024-01-30T00:31:07;101738.00;;;10.10
20103;BMP180;10210;52.284;9.892;2024-01-30T00:33:33;101731.00;;;10.10
20103;BMP180;10210;52.284;9.892;2024-01-30T00:35:58;101732.00;;;10.10
20103;BMP180;10210;52.284;9.892;2024-01-30T00:38:24;101723.00;;;10.10
20103;BMP180;10210;52.284;9.892;2024-01-30T00:40:50;101725.00;;;10.00
20103;BMP180;10210;52.284;9.892;2024-01-30T00:43:16;101725.00;;;10.00
20103;BMP180;10210;52.284;9.892;2024-01-30T00:45:43;101724.00;;;10.00
20103;BMP180;10210;52.284;9.892;2024-01-30T00:48:09;101735.00;;;10.00
20103;BMP180;10210;52.284;9.892;2024-01-30T00:50:35;101729.00;;;10.00
20103;BMP180;10210;52.284;9.892;2024-01-30T00:53:01;101724.00;;;10.00
20103;BMP180;10210;52.284;9.892;2024-01-30T00:55:27;101718.00;;;9.90
20103;BMP180;10210;52.284;9.892;2024-01-30T00:57:53;101735.00;;;9.90
20103;BMP180;10210;52.284;9.892;2024-01-30T01:00:19;101734.00;;;9.90
20103;BMP180;10210;52.284;9.892;2024-01-30T01:02:46;101739.00;;;9.90
20103;BMP180;10210;52.284;9.892;2024-01-30T01:05:12;101729.00;;;10.00
20103;BMP180;10210;52.284;9.892;2024-01-30T01:07:38;101742.00;;;10.00
20103;BMP180;10210;52.284;9.892;2024-01-30T01:10:04;101739.00;;;10.00
20103;BMP180;10210;52.284;9.892;2024-01-30T01:12:29;101746.00;;;10.10
20103;BMP180;10210;52.284;9.892;2024-01-30T01:14:55;101744.00;;;10.10
20103;BMP180;10210;52.284;9.892;2024-01-30T01:17:21;101752.00;;;10.10
20103;BMP180;10210;52.284;9.892;2024-01-30T01:19:46;101748.00;;;10.10
20103;BMP180;10210;52.284;9.892;2024-01-30T01:22:12;101740.00;;;10.20
20103;BMP180;10210;52.284;9.892;2024-01-30T01:24:38;101738.00;;;10.20
20103;BMP180;10210;52.284;9.892;2024-01-30T01:27:04;101740.00;;;10.20
20103;BMP180;10210;52.284;9.892;2024-01-30T01:29:31;101739.00;;;10.20
20103;BMP180;10210;52.284;9.892;2024-01-30T01:31:57;101749.00;;;10.20
20103;BMP180;10210;52.284;9.892;2024-01-30T01:34:23;101742.00;;;10.20
20103;BMP180;10210;52.284;9.892;2024-01-30T01:36:50;101749.00;;;10.20
20103;BMP180;10210;52.284;9.892;2024-01-30T01:39:16;101744.00;;;10.20
20103;BMP180;10210;52.284;9.892;2024-01-30T01:41:42;101739.00;;;10.20
20103;BMP180;10210;52.284;9.892;2024-01-30T01:44:08;101730.00;;;10.20
20103;BMP180;10210;52.284;9.892;2024-01-30T01:46:35;101731.00;;;10.10
20103;BMP180;10210;52.284;9.892;2024-01-30T01:49:03;101731.00;;;10.10
20103;BMP180;10210;52.284;9.892;2024-01-30T01:51:33;101727.00;;;10.10
20103;BMP180;10210;52.284;9.892;2024-01-30T01:54:03;101717.00;;;10.10
20103;BMP180;10210;52.284;9.892;2024-01-30T01:56:30;101719.00;;;10.00
20103;BMP180;10210;52.284;9.892;2024-01-30T01:59:05;101717.00;;;10.00
20103;BMP180;10210;52.284;9.892;2024-01-30T02:01:33;101722.00;;;10.00
20103;BMP180;10210;52.284;9.892;2024-01-30T02:04:00;101720.00;;;10.00
20103;BMP180;10210;52.284;9.892;2024-01-30T02:06:27;101729.00;;;10.00
20103;BMP180;10210;52.284;9.892;2024-01-30T02:08:54;101730.00;;;10.00
20103;BMP180;10210;52.284;9.892;2024-01-30T02:11:21;101719.00;;;10.00
20103;BMP180;10210;52.284;9.892;2024-01-30T02:13:47;101705.00;;;9.90
20103;BMP180;10210;52.284;9.892;2024-01-30T02:16:13;101698.00;;;9.90
20103;BMP180;10210;52.284;9.892;2024-01-30T02:18:38;101695.00;;;9.90
20103;BMP180;10210;52.284;9.892;2024-01-30T02:21:08;101686.00;;;9.90
20103;BMP180;10210;52.284;9.892;2024-01-30T02:23:34;101682.00;;;9.80
20103;BMP180;10210;52.284;9.892;2024-01-30T02:26:00;101692.00;;;9.90
20103;BMP180;10210;52.284;9.892;2024-01-30T02:28:28;101693.00;;;9.90
20103;BMP180;10210;52.284;9.892;2024-01-30T02:30:53;101690.00;;;9.90
20103;BMP180;10210;52.284;9.892;2024-01-30T02:33:19;101697.00;;;10.00
20103;BMP180;10210;52.284;9.892;2024-01-30T02:35:45;101689.00;;;10.00
20103;BMP180;10210;52.284;9.892;2024-01-30T02:38:10;101695.00;;;10.10
20103;BMP180;10210;52.284;9.892;2024-01-30T02:40:36;101692.00;;;10.10
20103;BMP180;10210;52.284;9.892;2024-01-30T02:43:03;101685.00;;;10.10
20103;BMP180;10210;52.284;9.892;2024-01-30T02:45:29;101686.00;;;10.10
20103;BMP180;10210;52.284;9.892;2024-01-30T02:47:54;101684.00;;;10.20
20103;BMP180;10210;52.284;9.892;2024-01-30T02:50:20;101680.00;;;10.20
20103;BMP180;10210;52.284;9.892;2024-01-30T02:52:46;101683.00;;;10.20
20103;BMP180;10210;52.284;9.892;2024-01-30T02:55:11;101682.00;;;10.10
20103;BMP180;10210;52.284;9.892;2024-01-30T02:57:38;101677.00;;;10.10
20103;BMP180;10210;52.284;9.892;2024-01-30T03:00:05;101679.00;;;10.10
20103;BMP180;10210;52.284;9.892;2024-01-30T03:02:33;101668.00;;;10.10
20103;BMP180;10210;52.284;9.892;2024-01-30T03:04:59;101668.00;;;10.10
20103;BMP180;10210;52.284;9.892;2024-01-30T03:07:25;101669.00;;;10.10
20103;BMP180;10210;52.284;9.892;2024-01-30T03:09:51;101665.00;;;10.10
20103;BMP180;10210;52.284;9.892;2024-01-30T03:12:17;101655.00;;;10.00
20103;BMP180;10210;52.284;9.892;2024-01-30T03:14:42;101661.00;;;10.00
20103;BMP180;10210;52.284;9.892;2024-01-30T03:17:08;101653.00;;;10.00
20103;BMP180;10210;52.284;9.892;2024-01-30T03:19:34;101651.00;;;9.90
20103;BMP180;10210;52.284;9.892;2024-01-30T03:21:59;101646.00;;;9.90
20103;BMP180;10210;52.284;9.892;2024-01-30T03:24:25;101640.00;;;9.80
20103;BMP180;10210;52.284;9.892;2024-01-30T03:26:52;101638.00;;;9.80
20103;BMP180;10210;52.284;9.892;2024-01-30T03:29:17;101636.00;;;9.80
20103;BMP180;10210;52.284;9.892;2024-01-30T03:31:43;101630.00;;;9.80
20103;BMP180;10210;52.284;9.892;2024-01-30T03:34:08;101631.00;;;9.70
20103;BMP180;10210;52.284;9.892;2024-01-30T03:36:34;101637.00;;;9.80
20103;BMP180;10210;52.284;9.892;2024-01-30T03:39:00;101631.00;;;9.70
20103;BMP180;10210;52.284;9.892;2024-01-30T03:41:26;101629.00;;;9.80
20103;BMP180;10210;52.284;9.892;2024-01-30T03:43:53;101638.00;;;9.80
20103;BMP180;10210;52.284;9.892;2024-01-30T03:46:19;101636.00;;;9.80
20103;BMP180;10210;52.284;9.892;2024-01-30T03:48:45;101632.00;;;9.80
20103;BMP180;10210;52.284;9.892;2024-01-30T03:51:11;101632.00;;;9.80
20103;BMP180;10210;52.284;9.892;2024-01-30T03:53:44;101635.00;;;9.80
20103;BMP180;10210;52.284;9.892;2024-01-30T03:56:12;101639.00;;;9.80
20103;BMP180;10210;52.284;9.892;2024-01-30T03:58:39;101632.00;;;9.80
20103;BMP180;10210;52.284;9.892;2024-01-30T04:01:04;101635.00;;;9.80
20103;BMP180;10210;52.284;9.892;2024-01-30T04:03:30;101633.00;;;9.80
20103;BMP180;10210;52.284;9.892;2024-01-30T04:05:55;101631.00;;;9.80
20103;BMP180;10210;52.284;9.892;2024-01-30T04:08:21;101624.00;;;9.80
20103;BMP180;10210;52.284;9.892;2024-01-30T04:10:47;101625.00;;;9.80
20103;BMP180;10210;52.284;9.892;2024-01-30T04:13:13;101628.00;;;9.80
20103;BMP180;10210;52.284;9.892;2024-01-30T04:15:39;101620.00;;;9.80
20103;BMP180;10210;52.284;9.892;2024-01-30T04:18:05;101613.00;;;9.80
20103;BMP180;10210;52.284;9.892;2024-01-30T04:20:31;101616.00;;;9.70
20103;BMP180;10210;52.284;9.892;2024-01-30T04:22:56;101619.00;;;9.70
20103;BMP180;10210;52.284;9.892;2024-01-30T04:25:22;101622.00;;;9.70
20103;BMP180;10210;52.284;9.892;2024-01-30T04:27:48;101621.00;;;9.70
20103;BMP180;10210;52.284;9.892;2024-01-30T04:30:14;101625.00;;;9.70
20103;BMP180;10210;52.284;9.892;2024-01-30T04:32:40;101629.00;;;9.70
20103;BMP180;10210;52.284;9.892;2024-01-30T04:35:06;101632.00;;;9.70
20103;BMP180;10210;52.284;9.892;2024-01-30T04:37:32;101636.00;;;9.70
20103;BMP180;10210;52.284;9.892;2024-01-30T04:39:58;101628.00;;;9.70
20103;BMP180;10210;52.284;9.892;2024-01-30T04:42:24;101627.00;;;9.70
20103;BMP180;10210;52.284;9.892;2024-01-30T04:44:50;101628.00;;;9.70
20103;BMP180;10210;52.284;9.892;2024-01-30T04:47:16;101629.00;;;9.70
20103;BMP180;10210;52.284;9.892;2024-01-30T04:49:42;101629.00;;;9.70
20103;BMP180;10210;52.284;9.892;2024-01-30T04:52:09;101635.00;;;9.70
20103;BMP180;10210;52.284;9.892;2024-01-30T04:54:35;101624.00;;;9.70
20103;BMP180;10210;52.284;9.892;2024-01-30T04:57:02;101628.00;;;9.70
20103;BMP180;10210;52.284;9.892;2024-01-30T04:59:28;101625.00;;;9.70
20103;BMP180;10210;52.284;9.892;2024-01-30T05:01:54;101628.00;;;9.80
20103;BMP180;10210;52.284;9.892;2024-01-30T05:04:20;101629.00;;;9.80
20103;BMP180;10210;52.284;9.892;2024-01-30T05:06:47;101630.00;;;9.80
20103;BMP180;10210;52.284;9.892;2024-01-30T05:09:13;101625.00;;;9.80
20103;BMP180;10210;52.284;9.892;2024-01-30T05:11:41;101624.00;;;9.80
20103;BMP180;10210;52.284;9.892;2024-01-30T05:14:07;101619.00;;;9.80
20103;BMP180;10210;52.284;9.892;2024-01-30T05:16:34;101626.00;;;9.70
20103;BMP180;10210;52.284;9.892;2024-01-30T05:19:00;101618.00;;;9.70
20103;BMP180;10210;52.284;9.892;2024-01-30T05:21:26;101614.00;;;9.70
20103;BMP180;10210;52.284;9.892;2024-01-30T05:23:53;101625.00;;;9.70
20103;BMP180;10210;52.284;9.892;2024-01-30T05:26:19;101609.00;;;9.60
20103;BMP180;10210;52.284;9.892;2024-01-30T05:28:44;101618.00;;;9.60
20103;BMP180;10210;52.284;9.892;2024-01-30T05:31:10;101619.00;;;9.60
20103;BMP180;10210;52.284;9.892;2024-01-30T05:33:36;101632.00;;;9.60
20103;BMP180;10210;52.284;9.892;2024-01-30T05:36:02;101618.00;;;9.60
20103;BMP180;10210;52.284;9.892;2024-01-30T05:38:28;101622.00;;;9.60
20103;BMP180;10210;52.284;9.892;2024-01-30T05:40:54;101619.00;;;9.60
20103;BMP180;10210;52.284;9.892;2024-01-30T05:43:20;101629.00;;;9.60
20103;BMP180;10210;52.284;9.892;2024-01-30T05:45:46;101627.00;;;9.60
20103;BMP180;10210;52.284;9.892;2024-01-30T05:48:11;101630.00;;;9.60
20103;BMP180;10210;52.284;9.892;2024-01-30T05:50:37;101635.00;;;9.60
20103;BMP180;10210;52.284;9.892;2024-01-30T05:53:03;101626.00;;;9.60
20103;BMP180;10210;52.284;9.892;2024-01-30T05:55:29;101629.00;;;9.60
20103;BMP180;10210;52.284;9.892;2024-01-30T05:57:54;101629.00;;;9.60
20103;BMP180;10210;52.284;9.892;2024-01-30T06:00:20;101620.00;;;9.60
20103;BMP180;10210;52.284;9.892;2024-01-30T06:02:45;101618.00;;;9.50
20103;BMP180;10210;52.284;9.892;2024-01-30T06:05:11;101622.00;;;9.50
20103;BMP180;10210;52.284;9.892;2024-01-30T06:07:37;101628.00;;;9.50
20103;BMP180;10210;52.284;9.892;2024-01-30T06:10:03;101623.00;;;9.50
20103;BMP180;10210;52.284;9.892;2024-01-30T06:12:29;101622.00;;;9.40
20103;BMP180;10210;52.284;9.892;2024-01-30T06:14:54;101621.00;;;9.40
20103;BMP180;10210;52.284;9.892;2024-01-30T06:17:23;101628.00;;;9.40
20103;BMP180;10210;52.284;9.892;2024-01-30T06:19:49;101629.00;;;9.40
20103;BMP180;10210;52.284;9.892;2024-01-30T06:22:15;101624.00;;;9.50
20103;BMP180;10210;52.284;9.892;2024-01-30T06:24:41;101620.00;;;9.50
20103;BMP180;10210;52.284;9.892;2024-01-30T06:27:07;101617.00;;;9.50
20103;BMP180;10210;52.284;9.892;2024-01-30T06:29:32;101607.00;;;9.40
20103;BMP180;10210;52.284;9.892;2024-01-30T06:31:58;101619.00;;;9.40
20103;BMP180;10210;52.284;9.892;2024-01-30T06:34:24;101615.00;;;9.40
20103;BMP180;10210;52.284;9.892;2024-01-30T06:36:51;101603.00;;;9.30
20103;BMP180;10210;52.284;9.892;2024-01-30T06:39:17;101605.00;;;9.30
20103;BMP180;10210;52.284;9.892;2024-01-30T06:41:43;101591.00;;;9.30
20103;BMP180;10210;52.284;9.892;2024-01-30T06:44:09;101589.00;;;9.30
20103;BMP180;10210;52.284;9.892;2024-01-30T06:46:35;101585.00;;;9.30
20103;BMP180;10210;52.284;9.892;2024-01-30T06:49:01;101595.00;;;9.30
20103;BMP180;10210;52.284;9.892;2024-01-30T06:51:31;101594.00;;;9.30
20103;BMP180;10210;52.284;9.892;2024-01-30T06:53:56;101587.00;;;9.40
20103;BMP180;10210;52.284;9.892;2024-01-30T06:56:22;101586.00;;;9.40
20103;BMP180;10210;52.284;9.892;2024-01-30T06:58:51;101590.00;;;9.40
20103;BMP180;10210;52.284;9.892;2024-01-30T07:01:17;101594.00;;;9.40
20103;BMP180;10210;52.284;9.892;2024-01-30T07:03:43;101594.00;;;9.40
20103;BMP180;10210;52.284;9.892;2024-01-30T07:06:09;101585.00;;;9.40
20103;BMP180;10210;52.284;9.892;2024-01-30T07:08:38;101584.00;;;9.40
20103;BMP180;10210;52.284;9.892;2024-01-30T07:11:05;101596.00;;;9.40
20103;BMP180;10210;52.284;9.892;2024-01-30T07:13:32;101590.00;;;9.40
20103;BMP180;10210;52.284;9.892;2024-01-30T07:15:58;101591.00;;;9.40
20103;BMP180;10210;52.284;9.892;2024-01-30T07:18:24;101595.00;;;9.40
20103;BMP180;10210;52.284;9.892;2024-01-30T07:20:49;101601.00;;;9.40
20103;BMP180;10210;52.284;9.892;2024-01-30T07:23:16;101615.00;;;9.40
20103;BMP180;10210;52.284;9.892;2024-01-30T07:25:46;101604.00;;;9.40
20103;BMP180;10210;52.284;9.892;2024-01-30T07:28:14;101605.00;;;9.40
20103;BMP180;10210;52.284;9.892;2024-01-30T07:30:43;101603.00;;;9.40
20103;BMP180;10210;52.284;9.892;2024-01-30T07:33:09;101594.00;;;9.40
20103;BMP180;10210;52.284;9.892;2024-01-30T07:35:36;101597.00;;;9.40
20103;BMP180;10210;52.284;9.892;2024-01-30T07:42:10;101597.00;;;9.40
20103;BMP180;10210;52.284;9.892;2024-01-30T07:44:36;101599.00;;;9.40
20103;BMP180;10210;52.284;9.892;2024-01-30T07:47:02;101604.00;;;9.50
20103;BMP180;10210;52.284;9.892;2024-01-30T07:49:28;101607.00;;;9.50
20103;BMP180;10210;52.284;9.892;2024-01-30T07:51:54;101607.00;;;9.50
20103;BMP180;10210;52.284;9.892;2024-01-30T07:54:19;101605.00;;;9.60
20103;BMP180;10210;52.284;9.892;2024-01-30T07:56:45;101601.00;;;9.60
20103;BMP180;10210;52.284;9.892;2024-01-30T07:59:11;101599.00;;;9.60
20103;BMP180;10210;52.284;9.892;2024-01-30T08:01:37;101598.00;;;9.60
20103;BMP180;10210;52.284;9.892;2024-01-30T08:04:03;101612.00;;;9.60
20103;BMP180;10210;52.284;9.892;2024-01-30T08:06:29;101604.00;;;9.70
20103;BMP180;10210;52.284;9.892;2024-01-30T08:08:55;101620.00;;;9.70
20103;BMP180;10210;52.284;9.892;2024-01-30T08:11:24;101600.00;;;9.70
20103;BMP180;10210;52.284;9.892;2024-01-30T08:13:53;101613.00;;;9.80
20103;BMP180;10210;52.284;9.892;2024-01-30T08:16:18;101612.00;;;9.80
20103;BMP180;10210;52.284;9.892;2024-01-30T08:18:44;101613.00;;;9.80
20103;BMP180;10210;52.284;9.892;2024-01-30T08:21:10;101612.00;;;9.90
20103;BMP180;10210;52.284;9.892;2024-01-30T08:23:35;101600.00;;;9.90
20103;BMP180;10210;52.284;9.892;2024-01-30T08:26:03;101596.00;;;10.00
20103;BMP180;10210;52.284;9.892;2024-01-30T08:28:29;101589.00;;;10.00
20103;BMP180;10210;52.284;9.892;2024-01-30T08:30:56;101592.00;;;10.10
20103;BMP180;10210;52.284;9.892;2024-01-30T08:33:22;101580.00;;;10.10
20103;BMP180;10210;52.284;9.892;2024-01-30T08:35:48;101596.00;;;10.20
20103;BMP180;10210;52.284;9.892;2024-01-30T08:38:14;101585.00;;;10.20
20103;BMP180;10210;52.284;9.892;2024-01-30T08:40:39;101584.00;;;10.20
20103;BMP180;10210;52.284;9.892;2024-01-30T08:43:05;101590.00;;;10.30
20103;BMP180;10210;52.284;9.892;2024-01-30T08:45:31;101597.00;;;10.30
20103;BMP180;10210;52.284;9.892;2024-01-30T08:47:57;101585.00;;;10.40
20103;BMP180;10210;52.284;9.892;2024-01-30T08:50:22;101590.00;;;10.40
20103;BMP180;10210;52.284;9.892;2024-01-30T08:52:48;101593.00;;;10.40
20103;BMP180;10210;52.284;9.892;2024-01-30T08:55:14;101608.00;;;10.40
20103;BMP180;10210;52.284;9.892;2024-01-30T08:57:39;101602.00;;;10.50
20103;BMP180;10210;52.284;9.892;2024-01-30T09:00:06;101596.00;;;10.50
20103;BMP180;10210;52.284;9.892;2024-01-30T09:02:34;101596.00;;;10.50
20103;BMP180;10210;52.284;9.892;2024-01-30T09:05:00;101592.00;;;10.60
20103;BMP180;10210;52.284;9.892;2024-01-30T09:07:26;101584.00;;;10.60
20103;BMP180;10210;52.284;9.892;2024-01-30T09:09:51;101589.00;;;10.70
20103;BMP180;10210;52.284;9.892;2024-01-30T09:12:17;101593.00;;;10.80
20103;BMP180;10210;52.284;9.892;2024-01-30T09:14:43;101583.00;;;10.80
20103;BMP180;10210;52.284;9.892;2024-01-30T09:17:08;101588.00;;;10.90
20103;BMP180;10210;52.284;9.892;2024-01-30T09:19:34;101593.00;;;10.90
20103;BMP180;10210;52.284;9.892;2024-01-30T09:22:03;101597.00;;;11.00
20103;BMP180;10210;52.284;9.892;2024-01-30T09:24:29;101592.00;;;11.00
20103;BMP180;10210;52.284;9.892;2024-01-30T09:26:55;101592.00;;;11.00
20103;BMP180;10210;52.284;9.892;2024-01-30T09:29:22;101594.00;;;11.00
20103;BMP180;10210;52.284;9.892;2024-01-30T09:31:47;101587.00;;;11.00
20103;BMP180;10210;52.284;9.892;2024-01-30T09:34:13;101588.00;;;11.10
20103;BMP180;10210;52.284;9.892;2024-01-30T09:36:39;101596.00;;;11.10
20103;BMP180;10210;52.284;9.892;2024-01-30T09:39:05;101597.00;;;11.20
20103;BMP180;10210;52.284;9.892;2024-01-30T09:41:48;101585.00;;;11.20
20103;BMP180;10210;52.284;9.892;2024-01-30T09:44:16;101585.00;;;11.30
20103;BMP180;10210;52.284;9.892;2024-01-30T09:46:43;101587.00;;;11.40
20103;BMP180;10210;52.284;9.892;2024-01-30T09:49:12;101584.00;;;11.50
20103;BMP180;10210;52.284;9.892;2024-01-30T09:51:39;101575.00;;;11.50
20103;BMP180;10210;52.284;9.892;2024-01-30T09:54:08;101592.00;;;11.60
20103;BMP180;10210;52.284;9.892;2024-01-30T09:56:35;101591.00;;;11.70
20103;BMP180;10210;52.284;9.892;2024-01-30T09:59:00;101591.00;;;11.80
20103;BMP180;10210;52.284;9.892;2024-01-30T10:01:26;101586.00;;;11.90
20103;BMP180;10210;52.284;9.892;2024-01-30T10:03:53;101592.00;;;12.00
20103;BMP180;10210;52.284;9.892;2024-01-30T10:06:20;101594.00;;;12.00
20103;BMP180;10210;52.284;9.892;2024-01-30T10:08:46;101600.00;;;12.10
20103;BMP180;10210;52.284;9.892;2024-01-30T10:11:12;101592.00;;;12.20
20103;BMP180;10210;52.284;9.892;2024-01-30T10:13:39;101597.00;;;12.30
20103;BMP180;10210;52.284;9.892;2024-01-30T10:16:06;101603.00;;;12.40
20103;BMP180;10210;52.284;9.892;2024-01-30T10:18:32;101587.00;;;12.40
20103;BMP180;10210;52.284;9.892;2024-01-30T10:20:59;101589.00;;;12.40
20103;BMP180;10210;52.284;9.892;2024-01-30T10:23:25;101585.00;;;12.40
20103;BMP180;10210;52.284;9.892;2024-01-30T10:25:51;101590.00;;;12.30
20103;BMP180;10210;52.284;9.892;2024-01-30T10:28:17;101578.00;;;12.30
20103;BMP180;10210;52.284;9.892;2024-01-30T10:30:43;101582.00;;;12.30
20103;BMP180;10210;52.284;9.892;2024-01-30T10:33:09;101589.00;;;12.30
20103;BMP180;10210;52.284;9.892;2024-01-30T10:35:35;101585.00;;;12.30
20103;BMP180;10210;52.284;9.892;2024-01-30T10:38:00;101574.00;;;12.30
20103;BMP180;10210;52.284;9.892;2024-01-30T10:40:29;101579.00;;;12.30
20103;BMP180;10210;52.284;9.892;2024-01-30T10:42:56;101577.00;;;12.30
20103;BMP180;10210;52.284;9.892;2024-01-30T10:45:22;101564.00;;;12.40
20103;BMP180;10210;52.284;9.892;2024-01-30T10:47:54;101573.00;;;12.40
20103;BMP180;10210;52.284;9.892;2024-01-30T10:50:25;101564.00;;;12.40
20103;BMP180;10210;52.284;9.892;2024-01-30T10:52:51;101565.00;;;12.40
20103;BMP180;10210;52.284;9.892;2024-01-30T10:55:18;101562.00;;;12.50
20103;BMP180;10210;52.284;9.892;2024-01-30T10:57:44;101560.00;;;12.50
20103;BMP180;10210;52.284;9.892;2024-01-30T11:00:14;101560.00;;;12.60
20103;BMP180;10210;52.284;9.892;2024-01-30T11:02:43;101563.00;;;12.60
20103;BMP180;10210;52.284;9.892;2024-01-30T11:05:10;101564.00;;;12.70
20103;BMP180;10210;52.284;9.892;2024-01-30T11:07:38;101552.00;;;12.70
20103;BMP180;10210;52.284;9.892;2024-01-30T11:10:05;101555.00;;;12.80
20103;BMP180;10210;52.284;9.892;2024-01-30T11:12:39;101551.00;;;12.80
20103;BMP180;10210;52.284;9.892;2024-01-30T11:15:12;101547.00;;;12.80
20103;BMP180;10210;52.284;9.892;2024-01-30T11:20:35;101552.00;;;12.90
20103;BMP180;10210;52.284;9.892;2024-01-30T11:23:11;101551.00;;;12.90
20103;BMP180;10210;52.284;9.892;2024-01-30T11:25:37;101553.00;;;12.90
20103;BMP180;10210;52.284;9.892;2024-01-30T11:28:03;101562.00;;;13.00
20103;BMP180;10210;52.284;9.892;2024-01-30T11:30:31;101543.00;;;13.00
20103;BMP180;10210;52.284;9.892;2024-01-30T11:33:05;101549.00;;;13.00
20103;BMP180;10210;52.284;9.892;2024-01-30T11:35:33;101544.00;;;13.00
20103;BMP180;10210;52.284;9.892;2024-01-30T11:38:00;101539.00;;;13.00
20103;BMP180;10210;52.284;9.892;2024-01-30T11:40:28;101543.00;;;13.10
20103;BMP180;10210;52.284;9.892;2024-01-30T11:42:58;101544.00;;;13.10
20103;BMP180;10210;52.284;9.892;2024-01-30T11:45:24;101540.00;;;13.10
20103;BMP180;10210;52.284;9.892;2024-01-30T11:47:50;101545.00;;;13.10
20103;BMP180;10210;52.284;9.892;2024-01-30T11:50:16;101539.00;;;13.10
20103;BMP180;10210;52.284;9.892;2024-01-30T11:52:42;101534.00;;;13.20
20103;BMP180;10210;52.284;9.892;2024-01-30T11:55:09;101534.00;;;13.20
20103;BMP180;10210;52.284;9.892;2024-01-30T11:57:35;101533.00;;;13.20
20103;BMP180;10210;52.284;9.892;2024-01-30T12:00:06;101523.00;;;13.20
20103;BMP180;10210;52.284;9.892;2024-01-30T12:02:36;101518.00;;;13.20
20103;BMP180;10210;52.284;9.892;2024-01-30T12:05:09;101519.00;;;13.20
20103;BMP180;10210;52.284;9.892;2024-01-30T12:07:35;101518.00;;;13.20
20103;BMP180;10210;52.284;9.892;2024-01-30T12:10:02;101511.00;;;13.20
20103;BMP180;10210;52.284;9.892;2024-01-30T12:12:29;101495.00;;;13.20
20103;BMP180;10210;52.284;9.892;2024-01-30T12:14:57;101496.00;;;13.20
20103;BMP180;10210;52.284;9.892;2024-01-30T12:17:31;101496.00;;;13.20
20103;BMP180;10210;52.284;9.892;2024-01-30T12:20:11;101501.00;;;13.20
20103;BMP180;10210;52.284;9.892;2024-01-30T12:22:41;101502.00;;;13.20
20103;BMP180;10210;52.284;9.892;2024-01-30T12:25:20;101494.00;;;13.30
20103;BMP180;10210;52.284;9.892;2024-01-30T12:27:49;101500.00;;;13.30
20103;BMP180;10210;52.284;9.892;2024-01-30T12:30:17;101490.00;;;13.40
20103;BMP180;10210;52.284;9.892;2024-01-30T12:32:44;101500.00;;;13.40
20103;BMP180;10210;52.284;9.892;2024-01-30T12:35:16;101504.00;;;13.50
20103;BMP180;10210;52.284;9.892;2024-01-30T12:37:44;101503.00;;;13.60
20103;BMP180;10210;52.284;9.892;2024-01-30T12:40:11;101498.00;;;13.60
20103;BMP180;10210;52.284;9.892;2024-01-30T12:42:40;101519.00;;;13.60
20103;BMP180;10210;52.284;9.892;2024-01-30T12:45:08;101512.00;;;13.60
20103;BMP180;10210;52.284;9.892;2024-01-30T12:47:33;101517.00;;;13.60
20103;BMP180;10210;52.284;9.892;2024-01-30T12:49:59;101529.00;;;13.60
20103;BMP180;10210;52.284;9.892;2024-01-30T12:52:25;101520.00;;;13.60
20103;BMP180;10210;52.284;9.892;2024-01-30T12:54:52;101533.00;;;13.50
20103;BMP180;10210;52.284;9.892;2024-01-30T12:57:18;101524.00;;;13.60
20103;BMP180;10210;52.284;9.892;2024-01-30T12:59:45;101525.00;;;13.60
20103;BMP180;10210;52.284;9.892;2024-01-30T13:02:13;101529.00;;;13.60
20103;BMP180;10210;52.284;9.892;2024-01-30T13:04:39;101530.00;;;13.60
20103;BMP180;10210;52.284;9.892;2024-01-30T13:07:05;101532.00;;;13.60
20103;BMP180;10210;52.284;9.892;2024-01-30T13:09:31;101521.00;;;13.60
20103;BMP180;10210;52.284;9.892;2024-01-30T13:11:58;101529.00;;;13.60
20103;BMP180;10210;52.284;9.892;2024-01-30T13:14:24;101539.00;;;13.60
20103;BMP180;10210;52.284;9.892;2024-01-30T13:16:50;101536.00;;;13.60
20103;BMP180;10210;52.284;9.892;2024-01-30T13:19:17;101526.00;;;13.70
20103;BMP180;10210;52.284;9.892;2024-01-30T13:21:42;101531.00;;;13.60
20103;BMP180;10210;52.284;9.892;2024-01-30T13:24:14;101539.00;;;13.70
20103;BMP180;10210;52.284;9.892;2024-01-30T13:26:42;101533.00;;;13.60
20103;BMP180;10210;52.284;9.892;2024-01-30T13:29:09;101539.00;;;13.70
20103;BMP180;10210;52.284;9.892;2024-01-30T13:31:38;101548.00;;;13.70
20103;BMP180;10210;52.284;9.892;2024-01-30T13:34:05;101548.00;;;13.70
20103;BMP180;10210;52.284;9.892;2024-01-30T13:36:32;101556.00;;;13.70
20103;BMP180;10210;52.284;9.892;2024-01-30T13:39:00;101558.00;;;13.70
20103;BMP180;10210;52.284;9.892;2024-01-30T13:41:27;101552.00;;;13.70
20103;BMP180;10210;52.284;9.892;2024-01-30T13:43:53;101545.00;;;13.60
20103;BMP180;10210;52.284;9.892;2024-01-30T13:46:19;101551.00;;;13.70
20103;BMP180;10210;52.284;9.892;2024-01-30T13:48:45;101555.00;;;13.60
20103;BMP180;10210;52.284;9.892;2024-01-30T13:51:11;101560.00;;;13.70
20103;BMP180;10210;52.284;9.892;2024-01-30T13:53:38;101561.00;;;13.70
20103;BMP180;10210;52.284;9.892;2024-01-30T13:56:04;101550.00;;;13.70
20103;BMP180;10210;52.284;9.892;2024-01-30T13:58:30;101558.00;;;13.70
20103;BMP180;10210;52.284;9.892;2024-01-30T14:00:59;101557.00;;;13.70
20103;BMP180;10210;52.284;9.892;2024-01-30T14:03:25;101553.00;;;13.70
20103;BMP180;10210;52.284;9.892;2024-01-30T14:05:50;101555.00;;;13.70